Terminal Aerodrome Forecast
Issued by NWS

Home | Current Version | Previous Version | Text Only | Print | Product List | Glossary On
Versions: 1 2 3 4 5 6 7 8 9 10 11 12 13 14
000
FTUS44 KCRP 210521
TAFLRD
TAF
KLRD 210521Z 2106/2206 12011KT P6SM -RA VCTS SCT025CB BKN080
     FM210900 15013KT P6SM VCSH BKN015 BKN025
     FM211500 19010KT P6SM BKN015
     FM211900 02011KT P6SM VCSH OVC025
     FM212300 02016G24KT P6SM OVC025=

USA.gov is the U.S. government's official web portal to all federal, state and local government web resources and services.